sensor_id;sensor_type;location;lat;lon;timestamp;temperature;humidity
32296;DHT22;18781;51.550;5.418;2024-02-15T00:00:03;15.40;85.90
32296;DHT22;18781;51.550;5.418;2024-02-15T00:02:29;15.40;86.00
32296;DHT22;18781;51.550;5.418;2024-02-15T00:04:55;15.40;86.00
32296;DHT22;18781;51.550;5.418;2024-02-15T00:07:22;15.40;85.90
32296;DHT22;18781;51.550;5.418;2024-02-15T00:09:48;15.40;85.90
32296;DHT22;18781;51.550;5.418;2024-02-15T00:12:14;15.40;85.90
32296;DHT22;18781;51.550;5.418;2024-02-15T00:14:40;15.40;86.00
32296;DHT22;18781;51.550;5.418;2024-02-15T00:17:05;15.40;86.00
32296;DHT22;18781;51.550;5.418;2024-02-15T00:19:31;15.40;85.90
32296;DHT22;18781;51.550;5.418;2024-02-15T00:21:59;15.40;85.90
32296;DHT22;18781;51.550;5.418;2024-02-15T00:24:25;15.40;86.00
32296;DHT22;18781;51.550;5.418;2024-02-15T00:26:50;15.40;85.90
32296;DHT22;18781;51.550;5.418;2024-02-15T00:29:19;15.40;86.00
32296;DHT22;18781;51.550;5.418;2024-02-15T00:31:45;15.40;86.00
32296;DHT22;18781;51.550;5.418;2024-02-15T00:34:10;15.40;85.90
32296;DHT22;18781;51.550;5.418;2024-02-15T00:36:36;15.40;85.90
32296;DHT22;18781;51.550;5.418;2024-02-15T00:39:02;15.30;85.90
32296;DHT22;18781;51.550;5.418;2024-02-15T00:41:29;15.30;86.10
32296;DHT22;18781;51.550;5.418;2024-02-15T00:43:56;15.40;85.90
32296;DHT22;18781;51.550;5.418;2024-02-15T00:46:22;15.30;85.90
32296;DHT22;18781;51.550;5.418;2024-02-15T00:48:48;15.30;85.90
32296;DHT22;18781;51.550;5.418;2024-02-15T00:51:13;15.30;86.00
32296;DHT22;18781;51.550;5.418;2024-02-15T00:53:40;15.30;86.00
32296;DHT22;18781;51.550;5.418;2024-02-15T00:56:06;15.30;86.00
32296;DHT22;18781;51.550;5.418;2024-02-15T00:58:31;15.40;86.00
32296;DHT22;18781;51.550;5.418;2024-02-15T01:00:57;15.30;85.90
32296;DHT22;18781;51.550;5.418;2024-02-15T01:03:22;15.30;86.00
32296;DHT22;18781;51.550;5.418;2024-02-15T01:05:48;15.30;86.00
32296;DHT22;18781;51.550;5.418;2024-02-15T01:08:14;15.30;86.00
32296;DHT22;18781;51.550;5.418;2024-02-15T01:10:40;15.30;86.50
32296;DHT22;18781;51.550;5.418;2024-02-15T01:13:05;15.30;86.00
32296;DHT22;18781;51.550;5.418;2024-02-15T01:15:31;15.30;86.00
32296;DHT22;18781;51.550;5.418;2024-02-15T01:17:56;15.30;85.90
32296;DHT22;18781;51.550;5.418;2024-02-15T01:20:22;15.30;86.00
32296;DHT22;18781;51.550;5.418;2024-02-15T01:22:48;15.30;85.90
32296;DHT22;18781;51.550;5.418;2024-02-15T01:25:13;15.30;86.00
32296;DHT22;18781;51.550;5.418;2024-02-15T01:27:41;15.30;85.90
32296;DHT22;18781;51.550;5.418;2024-02-15T01:30:07;15.30;85.90
32296;DHT22;18781;51.550;5.418;2024-02-15T01:32:34;15.30;85.80
32296;DHT22;18781;51.550;5.418;2024-02-15T01:34:59;15.30;85.80
32296;DHT22;18781;51.550;5.418;2024-02-15T01:37:25;15.30;85.80
32296;DHT22;18781;51.550;5.418;2024-02-15T01:39:51;15.30;85.80
32296;DHT22;18781;51.550;5.418;2024-02-15T01:42:16;15.30;85.80
32296;DHT22;18781;51.550;5.418;2024-02-15T01:44:43;15.30;85.70
32296;DHT22;18781;51.550;5.418;2024-02-15T01:47:13;15.30;85.70
32296;DHT22;18781;51.550;5.418;2024-02-15T01:49:39;15.30;85.70
32296;DHT22;18781;51.550;5.418;2024-02-15T01:52:07;15.30;85.70
32296;DHT22;18781;51.550;5.418;2024-02-15T01:54:34;15.30;85.70
32296;DHT22;18781;51.550;5.418;2024-02-15T01:57:02;15.30;85.70
32296;DHT22;18781;51.550;5.418;2024-02-15T01:59:28;15.20;85.60
32296;DHT22;18781;51.550;5.418;2024-02-15T02:01:56;15.20;85.60
32296;DHT22;18781;51.550;5.418;2024-02-15T02:04:21;15.30;85.70
32296;DHT22;18781;51.550;5.418;2024-02-15T02:06:47;15.20;85.60
32296;DHT22;18781;51.550;5.418;2024-02-15T02:09:13;15.20;85.60
32296;DHT22;18781;51.550;5.418;2024-02-15T02:11:41;15.20;85.60
32296;DHT22;18781;51.550;5.418;2024-02-15T02:14:06;15.20;85.70
32296;DHT22;18781;51.550;5.418;2024-02-15T02:16:32;15.20;85.60
32296;DHT22;18781;51.550;5.418;2024-02-15T02:18:58;15.20;85.60
32296;DHT22;18781;51.550;5.418;2024-02-15T02:21:33;15.30;85.60
32296;DHT22;18781;51.550;5.418;2024-02-15T02:24:03;15.30;85.60
32296;DHT22;18781;51.550;5.418;2024-02-15T02:26:34;15.20;85.50
32296;DHT22;18781;51.550;5.418;2024-02-15T02:29:02;15.20;85.50
32296;DHT22;18781;51.550;5.418;2024-02-15T02:31:36;15.20;85.60
32296;DHT22;18781;51.550;5.418;2024-02-15T02:34:01;15.20;85.30
32296;DHT22;18781;51.550;5.418;2024-02-15T02:36:27;15.20;85.30
32296;DHT22;18781;51.550;5.418;2024-02-15T02:38:54;15.20;85.30
32296;DHT22;18781;51.550;5.418;2024-02-15T02:41:20;15.20;85.30
32296;DHT22;18781;51.550;5.418;2024-02-15T02:43:46;15.10;85.20
32296;DHT22;18781;51.550;5.418;2024-02-15T02:46:12;15.10;85.20
32296;DHT22;18781;51.550;5.418;2024-02-15T02:48:39;15.20;85.30
32296;DHT22;18781;51.550;5.418;2024-02-15T02:51:10;15.10;85.30
32296;DHT22;18781;51.550;5.418;2024-02-15T02:53:36;15.10;85.30
32296;DHT22;18781;51.550;5.418;2024-02-15T02:56:01;15.10;85.30
32296;DHT22;18781;51.550;5.418;2024-02-15T02:58:27;15.10;85.30
32296;DHT22;18781;51.550;5.418;2024-02-15T03:00:54;15.10;85.30
32296;DHT22;18781;51.550;5.418;2024-02-15T03:03:20;15.10;85.30
32296;DHT22;18781;51.550;5.418;2024-02-15T03:05:48;15.10;85.30
32296;DHT22;18781;51.550;5.418;2024-02-15T03:08:14;15.10;85.30
32296;DHT22;18781;51.550;5.418;2024-02-15T03:10:40;15.10;85.30
32296;DHT22;18781;51.550;5.418;2024-02-15T03:13:06;15.10;85.40
32296;DHT22;18781;51.550;5.418;2024-02-15T03:15:35;15.10;85.40
32296;DHT22;18781;51.550;5.418;2024-02-15T03:18:00;15.10;85.90
32296;DHT22;18781;51.550;5.418;2024-02-15T03:20:33;15.10;85.40
32296;DHT22;18781;51.550;5.418;2024-02-15T03:23:00;15.10;85.40
32296;DHT22;18781;51.550;5.418;2024-02-15T03:25:27;15.10;85.40
32296;DHT22;18781;51.550;5.418;2024-02-15T03:27:56;15.10;85.40
32296;DHT22;18781;51.550;5.418;2024-02-15T03:30:23;15.10;85.40
32296;DHT22;18781;51.550;5.418;2024-02-15T03:32:49;15.10;85.30
32296;DHT22;18781;51.550;5.418;2024-02-15T03:35:19;15.10;85.30
32296;DHT22;18781;51.550;5.418;2024-02-15T03:37:48;15.10;85.40
32296;DHT22;18781;51.550;5.418;2024-02-15T03:40:16;15.10;85.30
32296;DHT22;18781;51.550;5.418;2024-02-15T03:42:42;15.10;85.30
32296;DHT22;18781;51.550;5.418;2024-02-15T03:45:08;15.10;85.30
32296;DHT22;18781;51.550;5.418;2024-02-15T03:47:34;15.10;85.30
32296;DHT22;18781;51.550;5.418;2024-02-15T03:50:01;15.10;85.30
32296;DHT22;18781;51.550;5.418;2024-02-15T03:52:27;15.10;85.30
32296;DHT22;18781;51.550;5.418;2024-02-15T03:55:01;15.10;85.20
32296;DHT22;18781;51.550;5.418;2024-02-15T03:57:28;15.10;85.20
32296;DHT22;18781;51.550;5.418;2024-02-15T03:59:54;15.10;85.30
32296;DHT22;18781;51.550;5.418;2024-02-15T04:02:26;15.10;85.30
32296;DHT22;18781;51.550;5.418;2024-02-15T04:04:55;15.10;85.30
32296;DHT22;18781;51.550;5.418;2024-02-15T04:07:24;15.10;85.30
32296;DHT22;18781;51.550;5.418;2024-02-15T04:09:52;15.10;85.40
32296;DHT22;18781;51.550;5.418;2024-02-15T04:12:18;15.10;85.20
32296;DHT22;18781;51.550;5.418;2024-02-15T04:14:44;15.10;85.30
32296;DHT22;18781;51.550;5.418;2024-02-15T04:17:13;15.10;85.40
32296;DHT22;18781;51.550;5.418;2024-02-15T04:19:45;15.10;85.40
32296;DHT22;18781;51.550;5.418;2024-02-15T04:22:12;15.10;85.40
32296;DHT22;18781;51.550;5.418;2024-02-15T04:24:37;15.10;85.50
32296;DHT22;18781;51.550;5.418;2024-02-15T04:27:06;15.10;85.50
32296;DHT22;18781;51.550;5.418;2024-02-15T04:29:37;15.10;85.60
32296;DHT22;18781;51.550;5.418;2024-02-15T04:32:09;15.10;85.60
32296;DHT22;18781;51.550;5.418;2024-02-15T04:34:39;15.10;85.50
32296;DHT22;18781;51.550;5.418;2024-02-15T04:37:05;15.10;85.50
32296;DHT22;18781;51.550;5.418;2024-02-15T04:39:36;15.10;85.60
32296;DHT22;18781;51.550;5.418;2024-02-15T04:42:02;15.10;85.60
32296;DHT22;18781;51.550;5.418;2024-02-15T04:44:30;15.10;85.70
32296;DHT22;18781;51.550;5.418;2024-02-15T04:46:55;15.10;85.70
32296;DHT22;18781;51.550;5.418;2024-02-15T04:49:21;15.10;85.70
32296;DHT22;18781;51.550;5.418;2024-02-15T04:51:48;15.10;85.70
32296;DHT22;18781;51.550;5.418;2024-02-15T04:54:14;15.10;85.70
32296;DHT22;18781;51.550;5.418;2024-02-15T04:56:40;15.10;85.70
32296;DHT22;18781;51.550;5.418;2024-02-15T04:59:07;15.10;85.70
32296;DHT22;18781;51.550;5.418;2024-02-15T05:01:35;15.10;85.70
32296;DHT22;18781;51.550;5.418;2024-02-15T05:04:01;15.10;85.70
32296;DHT22;18781;51.550;5.418;2024-02-15T05:06:31;15.10;85.70
32296;DHT22;18781;51.550;5.418;2024-02-15T05:08:57;15.10;85.80
32296;DHT22;18781;51.550;5.418;2024-02-15T05:11:25;15.10;85.80
32296;DHT22;18781;51.550;5.418;2024-02-15T05:13:51;15.10;85.80
32296;DHT22;18781;51.550;5.418;2024-02-15T05:16:17;15.10;86.30
32296;DHT22;18781;51.550;5.418;2024-02-15T05:18:44;15.10;85.80
32296;DHT22;18781;51.550;5.418;2024-02-15T05:21:14;15.10;85.80
32296;DHT22;18781;51.550;5.418;2024-02-15T05:23:41;15.10;85.80
32296;DHT22;18781;51.550;5.418;2024-02-15T05:26:08;15.10;85.80
32296;DHT22;18781;51.550;5.418;2024-02-15T05:28:34;15.10;85.80
32296;DHT22;18781;51.550;5.418;2024-02-15T05:31:19;15.10;85.80
32296;DHT22;18781;51.550;5.418;2024-02-15T05:33:49;15.10;85.90
32296;DHT22;18781;51.550;5.418;2024-02-15T05:36:16;15.10;85.70
32296;DHT22;18781;51.550;5.418;2024-02-15T05:38:47;15.20;85.80
32296;DHT22;18781;51.550;5.418;2024-02-15T05:41:13;15.20;85.80
32296;DHT22;18781;51.550;5.418;2024-02-15T05:43:39;15.20;85.80
32296;DHT22;18781;51.550;5.418;2024-02-15T05:46:08;15.20;85.80
32296;DHT22;18781;51.550;5.418;2024-02-15T05:48:37;15.20;85.80
32296;DHT22;18781;51.550;5.418;2024-02-15T05:51:03;15.20;85.80
32296;DHT22;18781;51.550;5.418;2024-02-15T05:53:30;15.20;85.80
32296;DHT22;18781;51.550;5.418;2024-02-15T05:55:56;15.20;85.80
32296;DHT22;18781;51.550;5.418;2024-02-15T05:58:23;15.20;85.70
32296;DHT22;18781;51.550;5.418;2024-02-15T06:00:49;15.20;85.80
32296;DHT22;18781;51.550;5.418;2024-02-15T06:03:18;15.20;86.10
32296;DHT22;18781;51.550;5.418;2024-02-15T06:05:47;15.20;85.70
32296;DHT22;18781;51.550;5.418;2024-02-15T06:08:16;15.20;85.70
32296;DHT22;18781;51.550;5.418;2024-02-15T06:10:42;15.20;85.70
32296;DHT22;18781;51.550;5.418;2024-02-15T06:13:08;15.20;85.80
32296;DHT22;18781;51.550;5.418;2024-02-15T06:15:36;15.10;85.70
32296;DHT22;18781;51.550;5.418;2024-02-15T06:18:02;15.10;85.70
32296;DHT22;18781;51.550;5.418;2024-02-15T06:20:34;15.20;85.70
32296;DHT22;18781;51.550;5.418;2024-02-15T06:23:01;15.10;85.70
32296;DHT22;18781;51.550;5.418;2024-02-15T06:25:31;15.10;85.70
32296;DHT22;18781;51.550;5.418;2024-02-15T06:27:57;15.10;85.70
32296;DHT22;18781;51.550;5.418;2024-02-15T06:30:28;15.10;85.70
32296;DHT22;18781;51.550;5.418;2024-02-15T06:33:12;15.10;85.70
32296;DHT22;18781;51.550;5.418;2024-02-15T06:35:56;15.10;85.60
32296;DHT22;18781;51.550;5.418;2024-02-15T06:38:57;15.10;85.70
32296;DHT22;18781;51.550;5.418;2024-02-15T06:41:41;15.10;85.70
32296;DHT22;18781;51.550;5.418;2024-02-15T06:44:07;15.10;85.80
32296;DHT22;18781;51.550;5.418;2024-02-15T06:46:33;15.10;85.80
32296;DHT22;18781;51.550;5.418;2024-02-15T06:48:58;15.10;85.90
32296;DHT22;18781;51.550;5.418;2024-02-15T06:51:24;15.10;85.90
32296;DHT22;18781;51.550;5.418;2024-02-15T06:53:50;15.10;86.00
32296;DHT22;18781;51.550;5.418;2024-02-15T06:56:17;15.10;86.00
32296;DHT22;18781;51.550;5.418;2024-02-15T06:58:43;15.10;86.00
32296;DHT22;18781;51.550;5.418;2024-02-15T07:01:09;15.10;86.00
32296;DHT22;18781;51.550;5.418;2024-02-15T07:03:34;15.10;86.10
32296;DHT22;18781;51.550;5.418;2024-02-15T07:06:01;15.10;86.10
32296;DHT22;18781;51.550;5.418;2024-02-15T07:08:28;15.10;86.10
32296;DHT22;18781;51.550;5.418;2024-02-15T07:10:55;15.10;86.20
32296;DHT22;18781;51.550;5.418;2024-02-15T07:13:20;15.10;86.20
32296;DHT22;18781;51.550;5.418;2024-02-15T07:15:46;15.10;86.20
32296;DHT22;18781;51.550;5.418;2024-02-15T07:18:12;15.10;86.30
32296;DHT22;18781;51.550;5.418;2024-02-15T07:20:39;15.10;86.30
32296;DHT22;18781;51.550;5.418;2024-02-15T07:23:06;15.10;86.30
32296;DHT22;18781;51.550;5.418;2024-02-15T07:25:32;15.10;86.30
32296;DHT22;18781;51.550;5.418;2024-02-15T07:27:57;15.10;86.30
32296;DHT22;18781;51.550;5.418;2024-02-15T07:30:24;15.10;86.40
32296;DHT22;18781;51.550;5.418;2024-02-15T07:32:50;15.10;86.40
32296;DHT22;18781;51.550;5.418;2024-02-15T07:35:16;15.10;86.40
32296;DHT22;18781;51.550;5.418;2024-02-15T07:37:55;15.10;86.30
32296;DHT22;18781;51.550;5.418;2024-02-15T07:40:23;15.20;86.50
32296;DHT22;18781;51.550;5.418;2024-02-15T07:42:56;15.20;86.40
32296;DHT22;18781;51.550;5.418;2024-02-15T07:45:22;15.20;86.40
32296;DHT22;18781;51.550;5.418;2024-02-15T07:47:48;15.20;86.40
32296;DHT22;18781;51.550;5.418;2024-02-15T07:50:18;15.20;86.40
32296;DHT22;18781;51.550;5.418;2024-02-15T07:52:48;15.20;86.30
32296;DHT22;18781;51.550;5.418;2024-02-15T07:55:14;15.20;86.20
32296;DHT22;18781;51.550;5.418;2024-02-15T07:57:40;15.20;86.20
32296;DHT22;18781;51.550;5.418;2024-02-15T08:00:06;15.20;86.20
32296;DHT22;18781;51.550;5.418;2024-02-15T08:02:39;15.20;86.20
32296;DHT22;18781;51.550;5.418;2024-02-15T08:05:09;15.20;86.20
32296;DHT22;18781;51.550;5.418;2024-02-15T08:07:41;15.20;86.20
32296;DHT22;18781;51.550;5.418;2024-02-15T08:10:07;15.20;86.30
32296;DHT22;18781;51.550;5.418;2024-02-15T08:12:45;15.20;86.30
32296;DHT22;18781;51.550;5.418;2024-02-15T08:15:12;15.20;86.30
32296;DHT22;18781;51.550;5.418;2024-02-15T08:17:41;15.20;86.30
32296;DHT22;18781;51.550;5.418;2024-02-15T08:20:11;15.20;86.20
32296;DHT22;18781;51.550;5.418;2024-02-15T08:22:37;15.30;86.30
32296;DHT22;18781;51.550;5.418;2024-02-15T08:25:10;15.30;86.20
32296;DHT22;18781;51.550;5.418;2024-02-15T08:27:43;15.30;86.20
32296;DHT22;18781;51.550;5.418;2024-02-15T08:30:13;15.30;86.20
32296;DHT22;18781;51.550;5.418;2024-02-15T08:32:42;15.30;86.20
32296;DHT22;18781;51.550;5.418;2024-02-15T08:35:09;15.30;86.10
32296;DHT22;18781;51.550;5.418;2024-02-15T08:37:36;15.30;86.10
32296;DHT22;18781;51.550;5.418;2024-02-15T08:40:08;15.30;86.10
32296;DHT22;18781;51.550;5.418;2024-02-15T08:42:40;15.40;86.00
32296;DHT22;18781;51.550;5.418;2024-02-15T08:45:07;15.40;86.00
32296;DHT22;18781;51.550;5.418;2024-02-15T08:47:41;15.40;86.00
32296;DHT22;18781;51.550;5.418;2024-02-15T08:50:08;15.40;85.90
32296;DHT22;18781;51.550;5.418;2024-02-15T08:52:40;15.40;85.80
32296;DHT22;18781;51.550;5.418;2024-02-15T08:55:06;15.40;85.70
32296;DHT22;18781;51.550;5.418;2024-02-15T08:57:33;15.40;85.80
32296;DHT22;18781;51.550;5.418;2024-02-15T08:59:59;15.40;85.70
32296;DHT22;18781;51.550;5.418;2024-02-15T09:02:25;15.40;85.70
32296;DHT22;18781;51.550;5.418;2024-02-15T09:04:50;15.40;85.70
32296;DHT22;18781;51.550;5.418;2024-02-15T09:07:16;15.40;85.70
32296;DHT22;18781;51.550;5.418;2024-02-15T09:09:41;15.40;85.70
32296;DHT22;18781;51.550;5.418;2024-02-15T09:12:07;15.40;85.60
32296;DHT22;18781;51.550;5.418;2024-02-15T09:14:33;15.40;85.60
32296;DHT22;18781;51.550;5.418;2024-02-15T09:17:02;15.40;85.60
32296;DHT22;18781;51.550;5.418;2024-02-15T09:19:34;15.40;85.60
32296;DHT22;18781;51.550;5.418;2024-02-15T09:22:00;15.50;85.70
32296;DHT22;18781;51.550;5.418;2024-02-15T09:24:26;15.50;85.60
32296;DHT22;18781;51.550;5.418;2024-02-15T09:26:52;15.50;85.60
32296;DHT22;18781;51.550;5.418;2024-02-15T09:29:19;15.50;85.60
32296;DHT22;18781;51.550;5.418;2024-02-15T09:31:49;15.50;85.50
32296;DHT22;18781;51.550;5.418;2024-02-15T09:34:15;15.60;85.50
32296;DHT22;18781;51.550;5.418;2024-02-15T09:36:40;15.60;85.40
32296;DHT22;18781;51.550;5.418;2024-02-15T09:39:06;15.60;85.30
32296;DHT22;18781;51.550;5.418;2024-02-15T09:41:32;15.60;85.30
32296;DHT22;18781;51.550;5.418;2024-02-15T09:43:59;15.60;85.20
32296;DHT22;18781;51.550;5.418;2024-02-15T09:46:26;15.60;85.20
32296;DHT22;18781;51.550;5.418;2024-02-15T09:48:56;15.60;85.20
32296;DHT22;18781;51.550;5.418;2024-02-15T09:51:29;15.70;85.20
32296;DHT22;18781;51.550;5.418;2024-02-15T09:53:57;15.70;85.10
32296;DHT22;18781;51.550;5.418;2024-02-15T09:56:26;15.70;85.20
32296;DHT22;18781;51.550;5.418;2024-02-15T09:58:54;15.70;85.10
32296;DHT22;18781;51.550;5.418;2024-02-15T10:01:22;15.70;85.10
32296;DHT22;18781;51.550;5.418;2024-02-15T10:03:49;15.80;84.90
32296;DHT22;18781;51.550;5.418;2024-02-15T10:06:17;15.80;84.80
32296;DHT22;18781;51.550;5.418;2024-02-15T10:08:44;15.80;84.80
32296;DHT22;18781;51.550;5.418;2024-02-15T10:11:10;15.80;84.60
32296;DHT22;18781;51.550;5.418;2024-02-15T10:13:36;15.90;84.60
32296;DHT22;18781;51.550;5.418;2024-02-15T10:16:20;15.90;84.60
32296;DHT22;18781;51.550;5.418;2024-02-15T10:18:50;15.90;84.60
32296;DHT22;18781;51.550;5.418;2024-02-15T10:21:28;15.90;84.70
32296;DHT22;18781;51.550;5.418;2024-02-15T10:24:05;15.90;84.70
32296;DHT22;18781;51.550;5.418;2024-02-15T10:26:31;15.90;84.70
32296;DHT22;18781;51.550;5.418;2024-02-15T10:29:11;16.00;84.90
32296;DHT22;18781;51.550;5.418;2024-02-15T10:31:38;16.00;84.70
32296;DHT22;18781;51.550;5.418;2024-02-15T10:34:06;16.00;84.90
32296;DHT22;18781;51.550;5.418;2024-02-15T10:36:33;16.10;85.00
32296;DHT22;18781;51.550;5.418;2024-02-15T10:39:18;16.10;84.50
32296;DHT22;18781;51.550;5.418;2024-02-15T10:41:50;16.10;84.30
32296;DHT22;18781;51.550;5.418;2024-02-15T10:44:18;16.10;84.40
32296;DHT22;18781;51.550;5.418;2024-02-15T10:46:45;16.10;85.00
32296;DHT22;18781;51.550;5.418;2024-02-15T10:49:12;16.20;84.50
32296;DHT22;18781;51.550;5.418;2024-02-15T10:51:43;16.20;84.40
32296;DHT22;18781;51.550;5.418;2024-02-15T10:54:12;16.20;84.20
32296;DHT22;18781;51.550;5.418;2024-02-15T10:56:43;16.30;84.20
32296;DHT22;18781;51.550;5.418;2024-02-15T10:59:19;16.30;84.00
32296;DHT22;18781;51.550;5.418;2024-02-15T11:01:54;16.30;83.80
32296;DHT22;18781;51.550;5.418;2024-02-15T11:04:23;16.40;84.40
32296;DHT22;18781;51.550;5.418;2024-02-15T11:06:55;16.40;83.80
32296;DHT22;18781;51.550;5.418;2024-02-15T11:09:21;16.40;83.50
32296;DHT22;18781;51.550;5.418;2024-02-15T11:11:48;16.40;83.50
32296;DHT22;18781;51.550;5.418;2024-02-15T11:14:32;16.50;83.60
32296;DHT22;18781;51.550;5.418;2024-02-15T11:17:01;16.50;83.20
32296;DHT22;18781;51.550;5.418;2024-02-15T11:21:58;16.60;83.60
32296;DHT22;18781;51.550;5.418;2024-02-15T11:24:28;16.50;83.60
32296;DHT22;18781;51.550;5.418;2024-02-15T11:26:58;16.60;83.20
32296;DHT22;18781;51.550;5.418;2024-02-15T11:29:54;16.70;83.10
32296;DHT22;18781;51.550;5.418;2024-02-15T11:32:41;16.70;83.00
32296;DHT22;18781;51.550;5.418;2024-02-15T11:35:17;16.80;83.10
32296;DHT22;18781;51.550;5.418;2024-02-15T11:40:28;16.80;82.90
32296;DHT22;18781;51.550;5.418;2024-02-15T11:42:56;16.90;82.60
32296;DHT22;18781;51.550;5.418;2024-02-15T11:45:26;16.90;82.80
32296;DHT22;18781;51.550;5.418;2024-02-15T11:47:53;16.90;82.70
32296;DHT22;18781;51.550;5.418;2024-02-15T11:50:20;17.00;82.60
32296;DHT22;18781;51.550;5.418;2024-02-15T11:52:47;17.00;82.50
32296;DHT22;18781;51.550;5.418;2024-02-15T11:55:20;17.10;82.60
32296;DHT22;18781;51.550;5.418;2024-02-15T11:58:00;17.10;82.20
32296;DHT22;18781;51.550;5.418;2024-02-15T12:00:36;17.10;81.80
32296;DHT22;18781;51.550;5.418;2024-02-15T12:03:22;17.20;82.20
32296;DHT22;18781;51.550;5.418;2024-02-15T12:06:06;17.20;82.00
32296;DHT22;18781;51.550;5.418;2024-02-15T12:08:54;17.30;82.00
32296;DHT22;18781;51.550;5.418;2024-02-15T12:11:39;17.30;81.60
32296;DHT22;18781;51.550;5.418;2024-02-15T12:14:25;17.30;81.50
32296;DHT22;18781;51.550;5.418;2024-02-15T12:17:11;17.40;81.40
32296;DHT22;18781;51.550;5.418;2024-02-15T12:19:57;17.40;81.90
32296;DHT22;18781;51.550;5.418;2024-02-15T12:22:43;17.40;81.40
32296;DHT22;18781;51.550;5.418;2024-02-15T12:25:14;17.50;81.00
32296;DHT22;18781;51.550;5.418;2024-02-15T12:27:47;17.50;81.00
32296;DHT22;18781;51.550;5.418;2024-02-15T12:30:18;17.60;80.80
32296;DHT22;18781;51.550;5.418;2024-02-15T12:32:51;17.60;80.90
32296;DHT22;18781;51.550;5.418;2024-02-15T12:35:19;17.60;80.80
32296;DHT22;18781;51.550;5.418;2024-02-15T12:37:45;17.70;80.60
32296;DHT22;18781;51.550;5.418;2024-02-15T12:40:18;17.70;80.50
32296;DHT22;18781;51.550;5.418;2024-02-15T12:42:45;17.80;80.30
32296;DHT22;18781;51.550;5.418;2024-02-15T12:45:16;17.80;80.30
32296;DHT22;18781;51.550;5.418;2024-02-15T12:47:52;17.90;79.80
32296;DHT22;18781;51.550;5.418;2024-02-15T12:50:18;17.90;79.80
32296;DHT22;18781;51.550;5.418;2024-02-15T12:52:46;17.90;79.50
32296;DHT22;18781;51.550;5.418;2024-02-15T12:55:18;18.00;79.80
32296;DHT22;18781;51.550;5.418;2024-02-15T12:57:54;18.00;79.20
32296;DHT22;18781;51.550;5.418;2024-02-15T13:00:22;18.10;78.80
32296;DHT22;18781;51.550;5.418;2024-02-15T13:02:53;18.10;79.40
32296;DHT22;18781;51.550;5.418;2024-02-15T13:05:19;18.20;78.90
32296;DHT22;18781;51.550;5.418;2024-02-15T13:07:52;18.20;78.70
32296;DHT22;18781;51.550;5.418;2024-02-15T13:10:18;18.30;78.30
32296;DHT22;18781;51.550;5.418;2024-02-15T13:12:47;18.20;78.60
32296;DHT22;18781;51.550;5.418;2024-02-15T13:15:14;18.30;77.80
32296;DHT22;18781;51.550;5.418;2024-02-15T13:17:47;18.30;77.60
32296;DHT22;18781;51.550;5.418;2024-02-15T13:20:23;18.30;76.70
32296;DHT22;18781;51.550;5.418;2024-02-15T13:23:02;18.40;77.30
32296;DHT22;18781;51.550;5.418;2024-02-15T13:25:33;18.40;78.00
32296;DHT22;18781;51.550;5.418;2024-02-15T13:27:59;18.40;77.80
32296;DHT22;18781;51.550;5.418;2024-02-15T13:30:25;18.40;77.40
32296;DHT22;18781;51.550;5.418;2024-02-15T13:32:53;18.50;77.40
32296;DHT22;18781;51.550;5.418;2024-02-15T13:35:22;18.40;77.30
32296;DHT22;18781;51.550;5.418;2024-02-15T13:37:55;18.50;77.30
32296;DHT22;18781;51.550;5.418;2024-02-15T13:40:24;18.50;75.90
32296;DHT22;18781;51.550;5.418;2024-02-15T13:42:51;18.60;77.20
32296;DHT22;18781;51.550;5.418;2024-02-15T13:45:31;18.60;76.60
32296;DHT22;18781;51.550;5.418;2024-02-15T13:47:59;18.60;75.80
32296;DHT22;18781;51.550;5.418;2024-02-15T13:50:28;18.60;76.50
32296;DHT22;18781;51.550;5.418;2024-02-15T13:52:54;18.70;76.20
32296;DHT22;18781;51.550;5.418;2024-02-15T13:55:20;18.70;76.30
32296;DHT22;18781;51.550;5.418;2024-02-15T13:57:51;18.70;75.90
32296;DHT22;18781;51.550;5.418;2024-02-15T14:00:18;18.70;75.70
32296;DHT22;18781;51.550;5.418;2024-02-15T14:02:48;18.70;75.30
32296;DHT22;18781;51.550;5.418;2024-02-15T14:05:14;18.80;75.30
32296;DHT22;18781;51.550;5.418;2024-02-15T14:07:39;18.70;75.30
32296;DHT22;18781;51.550;5.418;2024-02-15T14:10:06;18.80;75.30
32296;DHT22;18781;51.550;5.418;2024-02-15T14:12:32;18.80;75.20
32296;DHT22;18781;51.550;5.418;2024-02-15T14:14:58;18.80;75.10
32296;DHT22;18781;51.550;5.418;2024-02-15T14:17:23;18.80;75.10
32296;DHT22;18781;51.550;5.418;2024-02-15T14:19:49;18.80;74.90
32296;DHT22;18781;51.550;5.418;2024-02-15T14:22:15;18.80;74.90
32296;DHT22;18781;51.550;5.418;2024-02-15T14:24:44;18.80;74.80
32296;DHT22;18781;51.550;5.418;2024-02-15T14:27:10;18.80;74.70
32296;DHT22;18781;51.550;5.418;2024-02-15T14:29:37;18.90;75.30
32296;DHT22;18781;51.550;5.418;2024-02-15T14:32:13;18.90;74.40
32296;DHT22;18781;51.550;5.418;2024-02-15T14:34:57;18.90;74.20
32296;DHT22;18781;51.550;5.418;2024-02-15T14:37:23;18.90;74.20
32296;DHT22;18781;51.550;5.418;2024-02-15T14:39:49;18.90;73.80
32296;DHT22;18781;51.550;5.418;2024-02-15T14:42:15;18.90;74.10
32296;DHT22;18781;51.550;5.418;2024-02-15T14:44:41;18.90;73.70
32296;DHT22;18781;51.550;5.418;2024-02-15T14:47:08;18.90;73.60
32296;DHT22;18781;51.550;5.418;2024-02-15T14:49:34;18.90;73.80
32296;DHT22;18781;51.550;5.418;2024-02-15T14:52:00;19.00;73.00
32296;DHT22;18781;51.550;5.418;2024-02-15T14:54:27;19.00;72.80
32296;DHT22;18781;51.550;5.418;2024-02-15T14:56:52;19.00;72.70
32296;DHT22;18781;51.550;5.418;2024-02-15T14:59:19;19.00;72.50
32296;DHT22;18781;51.550;5.418;2024-02-15T15:01:45;19.00;72.20
32296;DHT22;18781;51.550;5.418;2024-02-15T15:04:11;19.00;72.40
32296;DHT22;18781;51.550;5.418;2024-02-15T15:06:38;19.00;72.00
32296;DHT22;18781;51.550;5.418;2024-02-15T15:09:22;19.00;72.10
32296;DHT22;18781;51.550;5.418;2024-02-15T15:12:06;19.00;72.10
32296;DHT22;18781;51.550;5.418;2024-02-15T15:14:50;19.00;71.90
32296;DHT22;18781;51.550;5.418;2024-02-15T15:17:15;19.00;71.70
32296;DHT22;18781;51.550;5.418;2024-02-15T15:19:42;19.00;71.50
32296;DHT22;18781;51.550;5.418;2024-02-15T15:22:08;19.00;71.50
32296;DHT22;18781;51.550;5.418;2024-02-15T15:24:33;19.00;71.20
32296;DHT22;18781;51.550;5.418;2024-02-15T15:26:59;19.00;71.30
32296;DHT22;18781;51.550;5.418;2024-02-15T15:29:25;19.00;71.40
32296;DHT22;18781;51.550;5.418;2024-02-15T15:31:52;19.00;71.20
32296;DHT22;18781;51.550;5.418;2024-02-15T15:34:18;19.00;71.20
32296;DHT22;18781;51.550;5.418;2024-02-15T15:36:45;19.10;71.20
32296;DHT22;18781;51.550;5.418;2024-02-15T15:39:13;19.10;71.00
32296;DHT22;18781;51.550;5.418;2024-02-15T15:41:40;19.00;70.90
32296;DHT22;18781;51.550;5.418;2024-02-15T15:44:08;19.10;70.80